x

Lake St Clair (45147) Wave Buoy

4:00pm - Tue 26th Jul 2016 All times are CDT. -5 hours from GMT.

  • Sig Wave height 0.3ft
  • Peak Period 2s
  • Wind
    4mph, 7mph gusts
  • Sea Temp 78°f
  • Air Temp 79°f
  • Sea Pressure 1015.5mb
  • Lake St Clair
  • Lake St Clair

More Historic Weather Station data

Upgrade to MSW Pro to gain access to the past 30 days of data for over 8000 Wavebouys and Weather Stations around the globe.

Join Pro

Comparision Forecast

View Surf forecast
   
Tue 07/26 4:00pm 0.3ft 2s 4 7 mph 1015.5mb 78f 79f
3:00pm 0.3ft 2s 7 9 mph 1015.9mb 79f 78f
2:00pm 0.3ft 2s 7
mph
1016.6mb 80f 77f
1:00pm 0.3ft 2s 4
mph
1017.2mb 79f 75f
12:00pm 0.3ft 2s 2
mph
1017.8mb 77f 74f
11:00am 0.3ft 2s  -  2 mph 1017.6mb 76f 73f
10:00am 0.3ft 2s 2
mph
1017.5mb 76f 73f
9:00am 0.3ft 2s  -  2 mph 1017.4mb 76f 73f
8:00am 0.3ft 3s  -  2 mph 1017.3mb 76f 74f
7:00am 0.3ft 2s 4 7 mph 1016.9mb 76f 72f
6:00am 0.3ft 2s 7 9 mph 1016.4mb 76f 72f
5:00am 0.7ft 2s 7 9 mph 1015.8mb 76f 72f
4:00am 0.7ft 2s 7 9 mph 1015.6mb 76f 72f
3:00am 1ft 2s 11 13 mph 1015.2mb 76f 73f
2:00am 1ft 2s 11 13 mph 1014.8mb 76f 73f
1:00am 1ft 2s 13 18 mph 1014.1mb 76f 76f
12:00am 0.7ft 2s 11 16 mph 1013.7mb 76f 79f
Mon 07/25 11:00pm 0.7ft 2s 9
mph
1013.7mb 76f 79f
10:00pm 0.7ft 2s 9
mph
1013.5mb 76f 80f
9:00pm 1ft 2s 11
mph
1012.7mb 76f 80f
8:00pm 0.7ft 2s 9
mph
1011.9mb 77f 81f
7:00pm 0.7ft 2s 7
mph
1011.4mb 77f 81f
6:00pm 0.7ft 2s 7 9 mph 1011.1mb 78f 82f
5:00pm 0.7ft 2s 7 9 mph 1011.2mb 78f 82f
4:00pm 0.7ft 2s 4 7 mph 1011.4mb 78f 84f
3:00pm 0.7ft 2s 2 4 mph 1011.9mb 78f 83f
2:00pm 0.3ft 2s  -  mph 1012.1mb 77f 83f
1:00pm 0.7ft 2s 7
mph
1012.5mb 76f 79f
12:00pm 0.7ft 2s 7 9 mph 1012.4mb 75f 77f
11:00am 0.7ft 2s 7 9 mph 1012.6mb 75f 76f
10:00am 1ft 2s 9 11 mph 1012.2mb 75f 76f
9:00am 1.3ft 3s 13 16 mph 1012mb 75f 76f
8:00am 1.3ft 3s 11 13 mph 1011.2mb 75f 76f
7:00am 1.3ft 3s 11 13 mph 1010.2mb 75f 76f
6:00am 1.6ft 3s 16 18 mph 1010.2mb 75f 76f
5:00am 1.6ft 3s 27 45 mph 1010.6mb 75f 78f
4:00am 1.3ft 3s 13
mph
1010.4mb 75f 78f
3:00am 1.3ft 3s 13 18 mph 1010mb 75f 79f
2:00am 1.3ft 3s 16 18 mph 1010.5mb 75f 79f
1:00am 1.3ft 3s 13 16 mph 1010.7mb 76f 78f
12:00am 1.3ft 3s 13 16 mph 1010.8mb 76f 78f
Sun 07/24 11:00pm 1ft 2s 13 16 mph 1011.5mb 76f 77f
10:00pm 1ft 2s 9 13 mph 1012.2mb 76f 78f
9:00pm 0.7ft 2s 11
mph
1011.7mb 76f 79f
8:00pm 0.3ft 2s 9 11 mph 1012.1mb 76f 79f
7:00pm 0.3ft 2s 7
mph
1012.3mb 76f 78f
6:00pm 0.7ft 2s 4 7 mph 1012.5mb 76f 78f
5:00pm 0.7ft 3s 4
mph
1012.6mb 76f 77f
4:00pm 1ft 2s 9
mph
1012.6mb 76f 77f
3:00pm 1ft 2s 11 13 mph 1013.2mb 76f 77f
2:00pm 1.3ft 2s 11 16 mph 1013.4mb 76f 77f
1:00pm 0.7ft 2s 9 16 mph 1013.3mb 76f 78f
12:00pm 1ft 2s 4 7 mph 1013.3mb 76f 77f
11:00am 1.3ft 3s 9
mph
1013.5mb 76f 79f
10:00am 1.3ft 3s 13 16 mph 1013.6mb 76f 78f
9:00am 1.3ft 3s 13 18 mph 1013.5mb 76f 79f
8:00am 1.3ft 2s 13 16 mph 1013.4mb 76f 78f
7:00am 1ft 2s 11 13 mph 1013.4mb 77f 78f
6:00am 1ft 2s 9 11 mph 1013.9mb 77f 78f
5:00am 0.7ft 2s 9
mph
1014.5mb 77f 77f
4:00am 0.7ft 2s 9 11 mph 1014.4mb 77f 77f
3:00am 1ft 2s 9
mph
1014.3mb 77f 79f
2:00am 1ft 2s 7 9 mph 1014.4mb 77f 79f
1:00am 1ft 2s 9 11 mph 1014.2mb 77f 79f
12:00am 1ft 2s 9 11 mph 1014.5mb 78f 80f
Sat 07/23 11:00pm 0.7ft 2s 9 11 mph 1014.8mb 78f 80f
10:00pm 0.7ft 2s 7 9 mph 1014.8mb 78f 81f
9:00pm 1ft 2s 7
mph
1014.4mb 79f 81f
8:00pm 1ft 2s 11
mph
1013.2mb 80f 82f
7:00pm 0.7ft 2s 9 11 mph 1013.3mb 81f 84f
6:00pm 0.7ft 2s 4
mph
1013.4mb 80f 84f
5:00pm 0.7ft 2s 2 4 mph 1013.4mb 80f 84f
4:00pm 0.7ft 2s 4
mph
1013.8mb 79f 84f
3:00pm 0.7ft 2s 4
mph
1013.9mb 79f 82f
2:00pm 0.7ft 2s 4
mph
1014.1mb 78f 83f
1:00pm 0.7ft 2s 2 4 mph 1014.7mb 77f 82f
12:00pm 0.3ft 2s  -  mph 1014.5mb 78f 82f
11:00am 0.3ft 2s 2
mph
1014.3mb 77f 78f
10:00am 0.3ft 2s 4
mph
1014.5mb 76f 76f
9:00am 0.3ft 2s 4
mph
1014.7mb 75f 75f
8:00am 0.7ft 2s 7
mph
1014.3mb 75f 75f
7:00am 0.3ft 2s 7
mph
1014.3mb 75f 75f
6:00am 0.3ft 2s 4 7 mph 1014.1mb 75f 75f
5:00am 0.3ft 2s 4
mph
1013.5mb 75f 76f
4:00am 0.3ft 2s 7
mph
1013.5mb 75f 76f
3:00am 0.3ft 3s 7 9 mph 1013.5mb 75f 77f
2:00am 0.3ft 2s 7 9 mph 1013.5mb 75f 78f
1:00am 0.3ft 2s 7 9 mph 1013.2mb 75f 79f
12:00am 0.7ft 2s 7 9 mph 1013.1mb 75f 79f
Fri 07/22 11:00pm 0.7ft 2s 4 7 mph 1013.1mb 75f 78f